Time;durP1;ratioP1;P1;durP2;ratioP2;P2;SDS_P1;SDS_P2;PMS_P1;PMS_P2;Temp;Humidity;BMP_temperature;BMP_pressure;BME280_temperature;BME280_humidity;BME280_pressure;Samples;Min_cycle;Max_cycle;Signal;HPM_P1;HPM_P2
2023/09/27 00:01:17;;;;;;;15.88;9.52;;;16.00;99.90;;;;;;4973262;28;20447;-74
2023/09/27 00:03:42;;;;;;;17.65;10.13;;;16.10;99.90;;;;;;4973451;28;20105;-71
2023/09/27 00:06:08;;;;;;;16.00;9.20;;;16.00;99.90;;;;;;4973104;28;20501;-71
2023/09/27 00:08:34;;;;;;;18.25;9.18;;;16.10;99.90;;;;;;4972693;28;20051;-71
2023/09/27 00:11:00;;;;;;;16.17;9.50;;;16.20;99.90;;;;;;4972951;28;20023;-71
2023/09/27 00:13:26;;;;;;;14.77;9.07;;;15.90;99.90;;;;;;4973105;28;20031;-74
2023/09/27 00:15:51;;;;;;;16.45;9.02;;;15.90;99.90;;;;;;4972948;28;20101;-71
2023/09/27 00:18:17;;;;;;;15.55;9.55;;;15.80;99.90;;;;;;4939449;28;20395;-71
2023/09/27 00:20:43;;;;;;;19.48;9.00;;;15.70;99.90;;;;;;4957415;28;20038;-74
2023/09/27 00:23:09;;;;;;;18.90;9.20;;;15.70;99.90;;;;;;4959979;28;20041;-71
2023/09/27 00:25:35;;;;;;;15.38;8.77;;;15.70;99.90;;;;;;4977053;28;20023;-75
2023/09/27 00:28:01;;;;;;;16.27;8.88;;;15.60;99.90;;;;;;4976627;28;20106;-75
2023/09/27 00:30:27;;;;;;;25.02;9.02;;;15.60;99.90;;;;;;4976855;28;20027;-74
2023/09/27 00:32:53;;;;;;;13.63;8.15;;;15.60;99.90;;;;;;4960020;28;20085;-74
2023/09/27 00:35:20;;;;;;;15.63;7.97;;;15.60;99.90;;;;;;4959300;28;20027;-75
2023/09/27 00:37:46;;;;;;;17.30;8.73;;;15.50;99.90;;;;;;4976883;28;20030;-72
2023/09/27 00:40:14;;;;;;;17.92;9.25;;;15.50;99.90;;;;;;4976347;28;20026;-71
2023/09/27 00:42:41;;;;;;;21.08;9.07;;;;;;;;;;4959599;28;20142;-75
2023/09/27 00:45:07;;;;;;;17.52;9.35;;;15.50;99.90;;;;;;4959041;28;20030;-74
2023/09/27 00:47:35;;;;;;;22.40;9.63;;;;;;;;;;4959446;28;20026;-76
2023/09/27 00:50:04;;;;;;;19.25;9.43;;;;;;;;;;4976086;28;20019;-72
2023/09/27 00:52:34;;;;;;;19.23;8.70;;;;;;;;;;4959566;28;20034;-75
2023/09/27 00:55:00;;;;;;;15.75;9.07;;;;;;;;;;4959374;28;20015;-70
2023/09/27 00:57:26;;;;;;;16.52;8.98;;;14.80;99.90;;;;;;4976397;28;20181;-71
2023/09/27 00:59:53;;;;;;;18.95;8.10;;;15.60;99.90;;;;;;4958574;28;20027;-71
2023/09/27 01:02:19;;;;;;;14.18;8.68;;;15.60;99.90;;;;;;4952585;28;20138;-74
2023/09/27 01:04:45;;;;;;;14.80;8.25;;;15.60;99.90;;;;;;4976042;28;20026;-74
2023/09/27 01:07:11;;;;;;;21.27;8.45;;;15.60;99.90;;;;;;4976266;28;20101;-71
2023/09/27 01:09:38;;;;;;;12.02;7.30;;;15.60;99.90;;;;;;4976024;28;20054;-71
2023/09/27 01:12:07;;;;;;;21.05;8.45;;;;;;;;;;4975738;28;20439;-71
2023/09/27 01:14:35;;;;;;;16.60;9.52;;;;;;;;;;4958776;28;20031;-71
2023/09/27 01:17:11;;;;;;;26.17;9.00;;;;;;;;;;4958449;28;20497;-72
2023/09/27 01:19:38;;;;;;;18.63;8.52;;;;;;;;;;4942537;28;20030;-71
2023/09/27 01:22:05;;;;;;;15.30;9.40;;;;;;;;;;4975605;28;20031;-70
2023/09/27 01:24:32;;;;;;;17.08;8.60;;;;;;;;;;4958544;28;20085;-70
2023/09/27 01:27:00;;;;;;;15.00;8.85;;;;;;;;;;4942597;28;20451;-71
2023/09/27 01:29:26;;;;;;;19.40;9.77;;;;;;;;;;4958252;28;20383;-71
2023/09/27 01:31:52;;;;;;;21.70;8.38;;;;;;;;;;4956659;28;20035;-71
2023/09/27 01:34:19;;;;;;;12.05;7.47;;;15.40;99.90;;;;;;4975436;28;20027;-75
2023/09/27 01:36:45;;;;;;;14.90;8.32;;;15.50;99.90;;;;;;4975684;28;20038;-71
2023/09/27 01:39:11;;;;;;;18.15;9.50;;;15.40;99.90;;;;;;4975858;28;20364;-69
2023/09/27 01:41:37;;;;;;;15.07;8.63;;;15.40;99.90;;;;;;4957709;28;20410;-71
2023/09/27 01:44:03;;;;;;;18.33;9.82;;;15.30;99.90;;;;;;4958162;28;20038;-73
2023/09/27 01:46:28;;;;;;;15.98;8.88;;;15.30;99.90;;;;;;4958259;28;20027;-71
2023/09/27 01:48:55;;;;;;;14.00;8.63;;;15.30;99.90;;;;;;4958115;28;20019;-71
2023/09/27 01:51:21;;;;;;;15.68;9.10;;;15.30;99.90;;;;;;4957912;28;20035;-71
2023/09/27 01:53:47;;;;;;;14.93;8.90;;;15.30;99.90;;;;;;4941869;28;20042;-72
2023/09/27 01:56:13;;;;;;;21.60;9.10;;;15.30;99.90;;;;;;4975377;28;20031;-71
2023/09/27 01:58:39;;;;;;;16.15;9.05;;;15.20;99.90;;;;;;4957822;28;20043;-74
2023/09/27 02:01:05;;;;;;;15.65;8.85;;;;;;;;;;4979152;28;20034;-71
2023/09/27 02:03:31;;;;;;;17.80;8.77;;;;;;;;;;4994504;28;20037;-72
2023/09/27 02:05:58;;;;;;;18.48;9.82;;;;;;;;;;4948310;28;20427;-71
2023/09/27 02:08:25;;;;;;;15.68;8.98;;;;;;;;;;4994181;28;20509;-71
2023/09/27 02:10:51;;;;;;;17.08;9.10;;;;;;;;;;4961086;28;20463;-72
2023/09/27 02:13:17;;;;;;;17.58;8.93;;;;;;;;;;4974980;28;20094;-71
2023/09/27 02:15:43;;;;;;;15.75;8.88;;;;;;;;;;4957647;28;20027;-72
2023/09/27 02:18:11;;;;;;;13.77;8.60;;;;;;;;;;4957668;28;20130;-73
2023/09/27 02:20:37;;;;;;;16.00;8.30;;;;;;;;;;4957542;28;20054;-72
2023/09/27 02:23:04;;;;;;;12.75;8.18;;;;;;;;;;4957517;28;20031;-73
2023/09/27 02:25:30;;;;;;;15.13;8.55;;;15.00;99.90;;;;;;4974211;28;20095;-74
2023/09/27 02:27:55;;;;;;;20.08;9.43;;;14.90;99.90;;;;;;4957658;28;20114;-71
2023/09/27 02:30:21;;;;;;;14.60;8.35;;;14.90;99.90;;;;;;4957096;28;20126;-71
2023/09/27 02:32:47;;;;;;;14.32;8.80;;;14.70;99.90;;;;;;4957259;28;20046;-73
2023/09/27 02:35:13;;;;;;;19.23;8.77;;;14.70;99.90;;;;;;4973692;28;20097;-74
2023/09/27 02:37:41;;;;;;;16.83;8.82;;;14.80;99.90;;;;;;4957087;28;20093;-72
2023/09/27 02:40:11;;;;;;;14.98;8.57;;;14.80;99.90;;;;;;4974832;28;20042;-70
2023/09/27 02:42:41;;;;;;;16.08;7.30;;;14.70;99.90;;;;;;4956967;28;20074;-71
2023/09/27 02:45:09;;;;;;;13.30;7.65;;;;;;;;;;4974105;28;20058;-72
2023/09/27 02:47:35;;;;;;;13.93;7.82;;;14.70;99.90;;;;;;4973738;28;20019;-75
2023/09/27 02:50:05;;;;;;;17.20;8.75;;;14.60;99.90;;;;;;4956685;28;20106;-73
2023/09/27 02:52:32;;;;;;;16.55;8.48;;;14.70;99.90;;;;;;4957002;28;20162;-73
2023/09/27 02:54:58;;;;;;;13.75;8.18;;;14.80;99.90;;;;;;4956870;28;20113;-72
2023/09/27 02:57:24;;;;;;;14.20;8.32;;;14.70;99.90;;;;;;4956589;28;20173;-70
2023/09/27 02:59:50;;;;;;;16.10;8.85;;;14.80;99.90;;;;;;4956536;28;20046;-73
2023/09/27 03:02:16;;;;;;;16.70;8.65;;;14.80;99.90;;;;;;4956944;28;20066;-75
2023/09/27 03:04:42;;;;;;;17.05;8.15;;;14.90;99.90;;;;;;4956905;28;20402;-75
2023/09/27 03:07:08;;;;;;;14.90;8.23;;;15.00;99.90;;;;;;4956405;28;20027;-73
2023/09/27 03:09:38;;;;;;;18.98;8.32;;;15.00;99.90;;;;;;4973366;28;20046;-70
2023/09/27 03:12:05;;;;;;;16.88;7.75;;;15.10;99.90;;;;;;4956746;28;20027;-74
2023/09/27 03:14:31;;;;;;;15.55;8.55;;;15.10;99.90;;;;;;4956016;28;20098;-71
2023/09/27 03:16:59;;;;;;;13.95;7.60;;;15.10;99.90;;;;;;4967790;28;20022;-73
2023/09/27 03:19:25;;;;;;;18.52;8.30;;;15.10;99.90;;;;;;4956191;28;20504;-73
2023/09/27 03:21:51;;;;;;;16.35;7.30;;;15.10;99.90;;;;;;4956482;28;20042;-76
2023/09/27 03:24:17;;;;;;;14.63;6.82;;;15.20;99.90;;;;;;4956598;28;20027;-72
2023/09/27 03:26:43;;;;;;;16.10;7.95;;;15.30;99.90;;;;;;4956514;28;20040;-74
2023/09/27 03:29:09;;;;;;;14.02;8.07;;;15.20;99.90;;;;;;4956136;28;20039;-71
2023/09/27 03:31:35;;;;;;;15.43;8.30;;;15.20;99.90;;;;;;4955931;28;20037;-73
2023/09/27 03:34:02;;;;;;;20.77;7.72;;;15.20;99.90;;;;;;4956204;28;20027;-72
2023/09/27 03:36:28;;;;;;;20.83;8.25;;;15.20;99.90;;;;;;4955888;28;20031;-74
2023/09/27 03:38:54;;;;;;;15.02;7.70;;;15.10;99.90;;;;;;4940346;28;20395;-71
2023/09/27 03:41:20;;;;;;;16.88;8.32;;;15.10;99.90;;;;;;4955703;28;20035;-74
2023/09/27 03:43:46;;;;;;;16.02;9.88;;;15.00;99.90;;;;;;4956543;28;20027;-74
2023/09/27 03:46:12;;;;;;;17.52;9.15;;;15.00;99.90;;;;;;4955934;28;20039;-74
2023/09/27 03:48:38;;;;;;;20.17;10.10;;;15.00;99.90;;;;;;4940126;28;20031;-75
2023/09/27 03:51:04;;;;;;;17.92;9.45;;;;;;;;;;4955501;28;20049;-73
2023/09/27 03:53:32;;;;;;;20.92;9.25;;;;;;;;;;4955667;28;20741;-72
2023/09/27 03:55:58;;;;;;;16.88;9.32;;;;;;;;;;4955271;28;20026;-73
2023/09/27 03:58:24;;;;;;;18.98;9.68;;;;;;;;;;4955922;28;20027;-72
2023/09/27 04:00:50;;;;;;;13.60;8.98;;;;;;;;;;4956915;28;20470;-74
2023/09/27 04:03:17;;;;;;;17.55;8.27;;;;;;;;;;4955868;28;20450;-72
2023/09/27 04:05:43;;;;;;;15.50;9.13;;;;;;;;;;4955601;28;20035;-69
2023/09/27 04:08:11;;;;;;;19.98;10.57;;;;;;;;;;4941332;28;20102;-70
2023/09/27 04:10:38;;;;;;;12.98;8.55;;;;;;;;;;4949532;28;20034;-71
2023/09/27 04:13:04;;;;;;;15.63;8.60;;;14.50;99.90;;;;;;4943262;28;20368;-70
2023/09/27 04:15:30;;;;;;;19.50;9.27;;;14.50;99.90;;;;;;4972724;28;20051;-71
2023/09/27 04:17:56;;;;;;;15.98;8.85;;;14.40;99.90;;;;;;4973055;28;20027;-75
2023/09/27 04:20:22;;;;;;;14.55;8.93;;;14.40;99.90;;;;;;4972402;28;20030;-70
2023/09/27 04:22:49;;;;;;;16.50;9.43;;;14.40;99.90;;;;;;4955904;28;20178;-72
2023/09/27 04:25:16;;;;;;;19.92;9.07;;;14.40;99.90;;;;;;4967705;28;20054;-70
2023/09/27 04:27:49;;;;;;;17.25;7.85;;;14.40;99.90;;;;;;4973198;28;20030;-70
2023/09/27 04:30:19;;;;;;;14.70;7.93;;;14.40;99.90;;;;;;4972991;28;20038;-71
2023/09/27 04:32:47;;;;;;;14.15;8.25;;;14.30;99.90;;;;;;4972824;28;20046;-71
2023/09/27 04:35:13;;;;;;;16.80;8.48;;;14.30;99.90;;;;;;4964777;28;20027;-70
2023/09/27 04:37:40;;;;;;;17.08;8.43;;;14.30;99.90;;;;;;4972732;28;20509;-71
2023/09/27 04:40:17;;;;;;;19.23;8.88;;;14.30;99.90;;;;;;4972898;28;20031;-70
2023/09/27 04:42:44;;;;;;;18.25;7.90;;;14.30;99.90;;;;;;4972327;28;20542;-70
2023/09/27 04:45:11;;;;;;;11.40;6.03;;;;;;;;;;4973096;28;20102;-70
2023/09/27 04:47:38;;;;;;;15.52;7.35;;;14.40;99.90;;;;;;4972823;28;20031;-70
2023/09/27 04:50:12;;;;;;;11.85;7.53;;;14.40;99.90;;;;;;4972742;28;20026;-71
2023/09/27 04:52:39;;;;;;;17.75;8.73;;;14.40;99.90;;;;;;4972443;28;20090;-70
2023/09/27 04:55:06;;;;;;;17.40;9.45;;;14.50;99.90;;;;;;4972680;28;20083;-70
2023/09/27 04:57:32;;;;;;;19.60;9.65;;;14.60;99.90;;;;;;4973128;28;20054;-70
2023/09/27 04:59:58;;;;;;;19.33;9.75;;;15.00;99.90;;;;;;4972538;28;20019;-70
2023/09/27 05:02:24;;;;;;;16.80;9.15;;;15.40;99.90;;;;;;4972614;28;20045;-70
2023/09/27 05:04:50;;;;;;;21.40;10.32;;;15.80;99.90;;;;;;4972289;28;20023;-70
2023/09/27 05:07:18;;;;;;;19.73;9.32;;;16.20;99.90;;;;;;4974862;28;20469;-71
2023/09/27 05:09:44;;;;;;;15.82;8.55;;;16.50;99.90;;;;;;4976042;28;20104;-70
2023/09/27 05:12:12;;;;;;;17.35;9.70;;;16.90;99.90;;;;;;4976102;28;20030;-71
2023/09/27 05:14:37;;;;;;;17.77;10.55;;;16.90;99.90;;;;;;4975993;28;20019;-72
2023/09/27 05:17:04;;;;;;;19.13;12.05;;;17.30;99.90;;;;;;4976361;28;20602;-76
2023/09/27 05:19:30;;;;;;;21.38;12.77;;;17.80;99.90;;;;;;4975691;28;20456;-71
2023/09/27 05:21:56;;;;;;;26.08;13.02;;;18.30;99.90;;;;;;4942249;28;20039;-71
2023/09/27 05:24:22;;;;;;;18.00;10.07;;;18.60;99.90;;;;;;4976151;28;20441;-70
2023/09/27 05:26:47;;;;;;;19.23;9.57;;;19.00;99.90;;;;;;4975561;28;20037;-71
2023/09/27 05:29:13;;;;;;;20.88;10.20;;;19.40;99.90;;;;;;4976158;28;20058;-71
2023/09/27 05:31:40;;;;;;;30.60;10.25;;;19.60;99.90;;;;;;4975682;28;20090;-71
2023/09/27 05:34:07;;;;;;;14.85;9.30;;;19.70;99.90;;;;;;4975882;28;20098;-70
2023/09/27 05:36:33;;;;;;;18.90;9.00;;;20.10;99.90;;;;;;4975036;28;20042;-70
2023/09/27 05:39:00;;;;;;;20.88;9.57;;;20.40;99.90;;;;;;4975825;28;20428;-71
2023/09/27 05:41:26;;;;;;;18.35;10.38;;;20.80;99.90;;;;;;4974925;28;20034;-71
2023/09/27 05:43:52;;;;;;;17.73;9.90;;;20.90;99.90;;;;;;4975964;28;20482;-71
2023/09/27 05:46:18;;;;;;;24.50;11.18;;;21.00;99.90;;;;;;4974902;28;20087;-70
2023/09/27 05:48:44;;;;;;;24.83;10.23;;;21.00;99.90;;;;;;4975223;28;20031;-71
2023/09/27 05:51:10;;;;;;;18.00;9.43;;;20.00;99.90;;;;;;4975466;28;20038;-71
2023/09/27 05:53:36;;;;;;;21.35;9.50;;;19.20;99.90;;;;;;4975226;28;20621;-75
2023/09/27 05:56:03;;;;;;;19.55;10.00;;;18.80;99.90;;;;;;4975458;28;20065;-70
2023/09/27 05:58:34;;;;;;;15.77;9.32;;;18.40;99.90;;;;;;4975455;28;20406;-72
2023/09/27 06:01:04;;;;;;;23.20;9.20;;;18.20;99.90;;;;;;4978716;28;20108;-72
2023/09/27 06:03:31;;;;;;;26.02;9.55;;;18.10;99.90;;;;;;4988542;28;20034;-72
2023/09/27 06:05:58;;;;;;;18.50;8.95;;;18.10;99.90;;;;;;4994365;28;20022;-71
2023/09/27 06:08:25;;;;;;;19.60;10.18;;;18.20;99.90;;;;;;4994154;28;20058;-72
2023/09/27 06:10:51;;;;;;;28.95;11.07;;;18.20;99.90;;;;;;4947902;28;20506;-72
2023/09/27 06:13:17;;;;;;;19.65;10.38;;;18.30;99.90;;;;;;4974931;28;20166;-71
2023/09/27 06:15:43;;;;;;;15.13;9.88;;;18.20;99.90;;;;;;4974899;28;20214;-71
2023/09/27 06:18:12;;;;;;;15.75;10.20;;;18.30;99.90;;;;;;4974342;28;20514;-71
2023/09/27 06:20:38;;;;;;;18.17;9.68;;;18.30;99.90;;;;;;4974758;28;20079;-71
2023/09/27 06:23:04;;;;;;;18.00;9.77;;;18.30;99.90;;;;;;4957142;28;20038;-71
2023/09/27 06:25:32;;;;;;;21.42;10.80;;;18.30;99.90;;;;;;4974564;28;20383;-71
2023/09/27 06:28:00;;;;;;;18.38;10.63;;;18.40;99.90;;;;;;4974846;28;20038;-71
2023/09/27 06:30:26;;;;;;;21.63;10.93;;;18.50;99.90;;;;;;4974857;28;20023;-71
2023/09/27 06:32:52;;;;;;;18.13;10.15;;;18.70;99.90;;;;;;4974589;28;20027;-72
2023/09/27 06:35:18;;;;;;;19.45;9.82;;;18.80;99.90;;;;;;4974488;28;20027;-75
2023/09/27 06:37:49;;;;;;;16.17;9.48;;;18.90;99.90;;;;;;4956505;28;20050;-71
2023/09/27 06:40:19;;;;;;;18.42;10.02;;;19.00;99.90;;;;;;4974307;28;20892;-71
2023/09/27 06:42:45;;;;;;;22.10;9.75;;;19.10;99.90;;;;;;4974039;28;20053;-71
2023/09/27 06:45:13;;;;;;;15.90;9.82;;;19.30;99.90;;;;;;4974006;28;20023;-72
2023/09/27 06:47:44;;;;;;;18.50;9.38;;;19.50;99.90;;;;;;4974040;28;20386;-71
2023/09/27 06:50:10;;;;;;;19.30;9.00;;;19.80;99.90;;;;;;4974359;28;20539;-70
2023/09/27 06:52:39;;;;;;;19.20;9.55;;;19.80;99.90;;;;;;4956958;28;20506;-71
2023/09/27 06:55:10;;;;;;;23.40;9.38;;;20.10;99.90;;;;;;4973736;28;20035;-72
2023/09/27 06:57:40;;;;;;;16.77;8.55;;;20.20;99.90;;;;;;4974148;28;20483;-72
2023/09/27 07:00:18;;;;;;;23.02;9.10;;;20.50;99.90;;;;;;4974028;28;20027;-71
2023/09/27 07:02:53;;;;;;;15.98;8.98;;;20.70;99.90;;;;;;4973508;28;20376;-71
2023/09/27 07:05:21;;;;;;;18.00;9.40;;;;;;;;;;4974178;28;20109;-72
2023/09/27 07:07:51;;;;;;;17.92;9.15;;;;;;;;;;4956025;28;20049;-71
2023/09/27 07:10:17;;;;;;;17.02;8.13;;;21.10;99.90;;;;;;4973750;28;20122;-70
2023/09/27 07:12:43;;;;;;;14.63;7.60;;;21.40;99.90;;;;;;4973348;28;20023;-72
2023/09/27 07:15:13;;;;;;;16.73;7.55;;;21.50;99.90;;;;;;4974034;28;20383;-71
2023/09/27 07:17:43;;;;;;;13.15;6.40;;;21.70;99.90;;;;;;4973589;28;20106;-71
2023/09/27 07:20:32;;;;;;;14.77;6.93;;;22.00;99.90;;;;;;4956037;28;20390;-71
2023/09/27 07:22:59;;;;;;;11.57;6.32;;;21.90;99.90;;;;;;4955873;28;20126;-71
2023/09/27 07:25:28;;;;;;;17.58;7.70;;;22.40;99.90;;;;;;4973771;28;20026;-72
2023/09/27 07:27:54;;;;;;;11.48;5.93;;;22.40;99.60;;;;;;4973677;28;20026;-72
2023/09/27 07:30:26;;;;;;;26.95;5.63;;;22.50;96.70;;;;;;4955847;28;20053;-71
2023/09/27 07:32:56;;;;;;;12.30;5.28;;;22.50;97.50;;;;;;4973468;28;20384;-72
2023/09/27 07:35:24;;;;;;;12.90;6.00;;;22.70;96.00;;;;;;4973411;28;20500;-71
2023/09/27 07:37:50;;;;;;;13.95;5.80;;;22.90;99.90;;;;;;4973064;28;20038;-71
2023/09/27 07:40:17;;;;;;;18.67;7.47;;;22.80;94.30;;;;;;4973190;28;20031;-72
2023/09/27 07:42:44;;;;;;;29.38;10.52;;;;;;;;;;4973105;28;20177;-71
2023/09/27 07:45:16;;;;;;;18.85;8.98;;;;;;;;;;4972996;28;20022;-70
2023/09/27 07:47:42;;;;;;;21.05;8.25;;;23.10;99.20;;;;;;4973562;28;20038;-72
2023/09/27 07:50:10;;;;;;;19.60;7.93;;;23.30;95.70;;;;;;4973016;28;20474;-73
2023/09/27 07:52:37;;;;;;;14.65;6.65;;;23.30;96.70;;;;;;4973349;28;20038;-71
2023/09/27 07:55:04;;;;;;;13.68;6.72;;;;;;;;;;4973185;28;20026;-71
2023/09/27 07:57:30;;;;;;;17.73;6.70;;;23.60;95.40;;;;;;4973430;28;20035;-71
2023/09/27 07:59:56;;;;;;;11.43;5.75;;;23.70;94.50;;;;;;4960024;28;20437;-71
2023/09/27 08:02:22;;;;;;;14.55;6.20;;;23.80;94.50;;;;;;4973230;28;20078;-71
2023/09/27 08:04:49;;;;;;;20.15;5.57;;;24.00;94.80;;;;;;4973065;28;20541;-71
2023/09/27 08:07:15;;;;;;;16.33;4.85;;;23.90;93.60;;;;;;4972443;28;20502;-72
2023/09/27 08:09:42;;;;;;;10.60;5.55;;;24.00;93.80;;;;;;4972961;28;20046;-71
2023/09/27 08:12:08;;;;;;;14.40;6.00;;;;;;;;;;4972517;28;20065;-71
2023/09/27 08:14:36;;;;;;;9.90;4.85;;;;;;;;;;4973162;28;20030;-71
2023/09/27 08:17:03;;;;;;;7.05;4.25;;;24.10;99.90;;;;;;4972632;28;20053;-71
2023/09/27 08:19:29;;;;;;;13.57;4.60;;;24.40;99.90;;;;;;4973115;28;20027;-72
2023/09/27 08:21:56;;;;;;;10.35;4.43;;;24.10;88.80;;;;;;4972399;28;20046;-72
2023/09/27 08:24:22;;;;;;;13.30;4.00;;;24.20;89.30;;;;;;4973136;28;20027;-71
2023/09/27 08:26:48;;;;;;;6.88;3.40;;;24.30;88.70;;;;;;4972675;28;20510;-71
2023/09/27 08:29:14;;;;;;;9.30;4.05;;;24.30;86.90;;;;;;4973076;28;20095;-72
2023/09/27 08:31:40;;;;;;;13.60;4.40;;;24.20;85.40;;;;;;4972172;28;20500;-72
2023/09/27 08:34:06;;;;;;;7.97;3.80;;;24.20;86.90;;;;;;4972644;28;20471;-70
2023/09/27 08:36:32;;;;;;;7.20;3.80;;;24.30;86.00;;;;;;4972817;28;20031;-71
2023/09/27 08:38:58;;;;;;;8.27;3.78;;;24.20;85.50;;;;;;4972609;28;20444;-69
2023/09/27 08:41:24;;;;;;;7.20;3.60;;;24.50;89.50;;;;;;4973760;28;20045;-71
2023/09/27 08:43:53;;;;;;;9.00;3.72;;;;;;;;;;4958946;28;20078;-70
2023/09/27 08:46:20;;;;;;;13.55;3.60;;;24.70;85.70;;;;;;4976814;28;20066;-73
2023/09/27 08:48:48;;;;;;;10.20;4.82;;;24.80;87.10;;;;;;4976451;28;20023;-70
2023/09/27 08:51:14;;;;;;;9.52;3.90;;;24.90;87.00;;;;;;4976404;28;20432;-74
2023/09/27 08:53:42;;;;;;;8.73;3.67;;;24.90;85.30;;;;;;4975971;28;20015;-71
2023/09/27 08:56:11;;;;;;;9.38;3.72;;;25.00;86.40;;;;;;4976370;28;20065;-70
2023/09/27 08:58:39;;;;;;;10.45;4.32;;;25.00;87.00;;;;;;4976525;28;20035;-71
2023/09/27 09:01:08;;;;;;;9.07;3.75;;;25.20;87.70;;;;;;4975968;28;20067;-71
2023/09/27 09:03:37;;;;;;;9.32;3.53;;;25.20;85.70;;;;;;4976315;28;20031;-69
2023/09/27 09:06:10;;;;;;;7.60;3.42;;;25.20;84.00;;;;;;4976035;28;20141;-71
2023/09/27 09:08:40;;;;;;;7.22;3.97;;;25.20;82.10;;;;;;4976137;28;20506;-70
2023/09/27 09:11:10;;;;;;;9.15;4.05;;;25.20;83.60;;;;;;4976074;28;20146;-71
2023/09/27 09:13:56;;;;;;;16.75;4.78;;;;;;;;;;4975964;28;20039;-70
2023/09/27 09:16:23;;;;;;;6.80;3.72;;;25.50;88.70;;;;;;4956572;28;20466;-71
2023/09/27 09:18:52;;;;;;;12.50;3.90;;;25.50;86.00;;;;;;4975913;28;20534;-73
2023/09/27 09:21:21;;;;;;;8.18;3.67;;;25.50;82.30;;;;;;4975863;28;20038;-71
2023/09/27 09:23:49;;;;;;;8.05;3.45;;;25.50;82.10;;;;;;4975773;28;20070;-71
2023/09/27 09:26:29;;;;;;;9.38;3.90;;;25.60;85.00;;;;;;4975582;28;20062;-70
2023/09/27 09:28:59;;;;;;;21.95;5.20;;;25.80;99.20;;;;;;4976119;28;20034;-69
2023/09/27 09:31:27;;;;;;;11.30;3.65;;;25.80;84.40;;;;;;4975814;28;20033;-70
2023/09/27 09:34:11;;;;;;;15.07;4.43;;;25.80;83.10;;;;;;4975466;28;20029;-71
2023/09/27 09:36:37;;;;;;;14.48;4.50;;;25.80;81.70;;;;;;4975400;28;20030;-70
2023/09/27 09:39:04;;;;;;;9.95;3.90;;;25.90;80.80;;;;;;4975482;28;20026;-71
2023/09/27 09:42:00;;;;;;;8.20;3.97;;;25.90;83.00;;;;;;4975689;28;20467;-72
2023/09/27 09:44:26;;;;;;;9.43;3.80;;;25.90;81.20;;;;;;4897475;29;20408;-71
2023/09/27 09:46:52;;;;;;;7.53;3.85;;;25.90;82.60;;;;;;4896757;29;20076;-72
2023/09/27 09:49:18;;;;;;;7.18;3.85;;;25.90;81.70;;;;;;4896767;29;20049;-72
2023/09/27 09:51:48;;;;;;;15.00;4.45;;;25.90;82.20;;;;;;4897121;29;20115;-71
2023/09/27 09:54:46;;;;;;;10.07;4.07;;;25.90;78.20;;;;;;4896042;29;20123;-74
2023/09/27 09:57:19;;;;;;;10.88;3.47;;;26.00;80.80;;;;;;4852303;29;20042;-72
2023/09/27 10:00:17;;;;;;;9.55;4.22;;;25.90;78.90;;;;;;4856407;29;20045;-71
2023/09/27 10:02:52;;;;;;;10.63;4.32;;;25.90;78.90;;;;;;4849532;29;20064;-71
2023/09/27 10:05:20;;;;;;;10.05;3.92;;;26.00;77.70;;;;;;4878190;29;20089;-72
2023/09/27 10:07:48;;;;;;;8.68;3.75;;;26.10;78.70;;;;;;4877187;29;20469;-72
2023/09/27 10:10:17;;;;;;;6.45;3.70;;;26.10;78.70;;;;;;4858999;29;20056;-70
2023/09/27 10:12:45;;;;;;;8.65;3.80;;;26.10;79.20;;;;;;4859740;29;20072;-70
2023/09/27 10:15:12;;;;;;;10.95;4.82;;;26.10;79.50;;;;;;4859054;29;20143;-71
2023/09/27 10:17:38;;;;;;;10.85;3.97;;;26.30;80.60;;;;;;4859383;29;20029;-71
2023/09/27 10:20:14;;;;;;;8.80;4.25;;;26.30;76.90;;;;;;4866437;29;20045;-73
2023/09/27 10:22:45;;;;;;;12.73;4.35;;;26.40;77.70;;;;;;4896660;29;20063;-72
2023/09/27 10:25:32;;;;;;;8.05;4.10;;;26.30;76.40;;;;;;4896202;29;20513;-70
2023/09/27 10:28:15;;;;;;;8.93;3.95;;;26.30;75.40;;;;;;4896488;29;20076;-70
2023/09/27 10:30:40;;;;;;;7.45;4.13;;;26.40;76.70;;;;;;4895888;29;20041;-74
2023/09/27 10:33:15;;;;;;;9.63;4.22;;;26.40;76.70;;;;;;4905518;28;20125;-72
2023/09/27 10:35:44;;;;;;;10.35;4.18;;;26.30;74.40;;;;;;4961837;28;20367;-71
2023/09/27 10:38:10;;;;;;;7.65;4.20;;;26.20;74.80;;;;;;4974488;28;20379;-71
2023/09/27 10:40:46;;;;;;;10.23;4.32;;;26.20;73.50;;;;;;4974000;28;20037;-70
2023/09/27 10:43:34;;;;;;;10.60;4.32;;;26.20;74.60;;;;;;4974442;28;20062;-72
2023/09/27 10:46:00;;;;;;;9.23;4.30;;;26.30;77.00;;;;;;4974684;28;20118;-71
2023/09/27 10:48:25;;;;;;;7.30;3.72;;;26.30;74.30;;;;;;4974171;28;20101;-75
2023/09/27 10:50:52;;;;;;;14.20;4.93;;;26.40;77.60;;;;;;4974275;28;20030;-72
2023/09/27 10:53:18;;;;;;;10.80;4.40;;;26.40;74.50;;;;;;4974174;28;20015;-72
2023/09/27 10:55:44;;;;;;;12.70;4.00;;;26.40;75.80;;;;;;4974098;28;20027;-73
2023/09/27 10:58:17;;;;;;;9.90;4.05;;;26.30;75.10;;;;;;4974334;28;20027;-74
2023/09/27 11:00:55;;;;;;;10.02;4.10;;;26.50;74.90;;;;;;4973766;28;20431;-74
2023/09/27 11:03:21;;;;;;;13.88;3.88;;;26.50;74.30;;;;;;4973908;28;20043;-74
2023/09/27 11:05:47;;;;;;;9.00;4.50;;;26.40;73.90;;;;;;4973538;28;20039;-74
2023/09/27 11:08:24;;;;;;;9.48;4.20;;;26.50;74.60;;;;;;4974093;28;20054;-71
2023/09/27 11:10:52;;;;;;;11.65;4.65;;;26.60;76.80;;;;;;4956475;28;20475;-70
2023/09/27 11:13:19;;;;;;;12.70;4.65;;;26.70;75.80;;;;;;4973573;28;20073;-70
2023/09/27 11:15:45;;;;;;;5.50;3.67;;;26.60;74.60;;;;;;4973882;28;20034;-72
2023/09/27 11:18:11;;;;;;;8.32;4.13;;;26.50;73.80;;;;;;4973864;28;20033;-72
2023/09/27 11:20:39;;;;;;;10.18;4.25;;;26.60;74.60;;;;;;4973926;28;20105;-71
2023/09/27 11:23:05;;;;;;;10.45;4.40;;;26.60;74.70;;;;;;4973268;28;20083;-71
2023/09/27 11:25:40;;;;;;;10.77;4.57;;;26.50;74.10;;;;;;4974067;28;20363;-71
2023/09/27 11:28:13;;;;;;;10.82;4.53;;;26.60;75.40;;;;;;4973668;28;20066;-71
2023/09/27 11:30:39;;;;;;;8.88;4.25;;;26.60;76.40;;;;;;4973642;28;20078;-72
2023/09/27 11:33:05;;;;;;;8.70;4.10;;;26.70;75.00;;;;;;4974111;28;20030;-72
2023/09/27 11:35:32;;;;;;;9.82;4.60;;;26.70;75.90;;;;;;4973510;28;20045;-70
2023/09/27 11:38:13;;;;;;;9.90;4.80;;;26.60;74.00;;;;;;4956201;28;20031;-72
2023/09/27 11:40:41;;;;;;;9.77;4.07;;;26.70;74.30;;;;;;4973424;28;20034;-71
2023/09/27 11:43:08;;;;;;;9.38;4.47;;;26.60;74.30;;;;;;4973073;28;20074;-71
2023/09/27 11:45:48;;;;;;;16.58;4.45;;;26.60;75.50;;;;;;4973654;28;20030;-71
2023/09/27 11:48:15;;;;;;;9.25;4.25;;;26.60;74.20;;;;;;4973032;28;20027;-72
2023/09/27 11:50:41;;;;;;;8.27;3.95;;;26.70;76.10;;;;;;4973448;28;20034;-71
2023/09/27 11:53:07;;;;;;;10.10;4.65;;;26.60;73.90;;;;;;4973149;28;20019;-75
2023/09/27 11:55:35;;;;;;;11.70;4.70;;;26.50;74.10;;;;;;4973485;28;20517;-73
2023/09/27 11:58:00;;;;;;;14.57;4.85;;;26.50;74.40;;;;;;4973075;28;20467;-72
2023/09/27 12:00:27;;;;;;;8.85;4.78;;;26.50;76.00;;;;;;4973401;28;20162;-71
2023/09/27 12:02:53;;;;;;;7.90;3.92;;;26.30;74.70;;;;;;4973247;28;20479;-70
2023/09/27 12:05:19;;;;;;;9.10;4.50;;;26.30;75.50;;;;;;4973178;28;20099;-71
2023/09/27 12:07:45;;;;;;;8.02;4.60;;;26.30;75.60;;;;;;4972962;28;20039;-72
2023/09/27 12:10:11;;;;;;;13.65;4.70;;;26.30;74.00;;;;;;4972736;28;20034;-76
2023/09/27 12:12:37;;;;;;;6.03;4.22;;;26.30;76.10;;;;;;4973189;28;20383;-72
2023/09/27 12:15:04;;;;;;;7.20;4.43;;;26.40;75.90;;;;;;4973150;28;20034;-74
2023/09/27 12:17:30;;;;;;;12.73;4.80;;;26.50;74.10;;;;;;4972551;28;20037;-72
2023/09/27 12:19:56;;;;;;;10.90;4.45;;;26.60;71.80;;;;;;4972808;28;20031;-70
2023/09/27 12:22:24;;;;;;;11.73;4.97;;;26.60;76.10;;;;;;4973002;28;20133;-70
2023/09/27 12:24:51;;;;;;;7.55;4.32;;;26.60;73.50;;;;;;4973083;28;20019;-71
2023/09/27 12:27:17;;;;;;;8.90;4.15;;;26.50;72.50;;;;;;4972617;28;20041;-71
2023/09/27 12:29:42;;;;;;;11.35;5.20;;;26.60;71.70;;;;;;4955084;28;20051;-75
2023/09/27 12:32:08;;;;;;;10.27;4.80;;;26.70;74.80;;;;;;4972821;28;20034;-71
2023/09/27 12:34:34;;;;;;;8.98;4.80;;;26.70;71.90;;;;;;4973275;28;20075;-73
2023/09/27 12:37:00;;;;;;;9.00;5.43;;;26.70;73.10;;;;;;4972697;28;20044;-73
2023/09/27 12:39:26;;;;;;;6.68;4.57;;;26.70;74.70;;;;;;4972817;28;20034;-69
2023/09/27 12:41:52;;;;;;;8.18;4.32;;;26.70;74.80;;;;;;4972365;28;20409;-71
2023/09/27 12:44:18;;;;;;;9.57;4.40;;;26.70;73.50;;;;;;4973463;28;20034;-71
2023/09/27 12:46:44;;;;;;;12.18;5.18;;;26.80;72.50;;;;;;4972404;28;20061;-71
2023/09/27 12:49:10;;;;;;;9.55;4.95;;;26.70;69.10;;;;;;4955501;28;20025;-71
2023/09/27 12:51:36;;;;;;;7.53;4.35;;;26.80;71.40;;;;;;4972688;28;20030;-73
2023/09/27 12:54:02;;;;;;;10.00;4.57;;;26.80;70.50;;;;;;4972796;28;20038;-72
2023/09/27 12:56:28;;;;;;;12.80;4.85;;;26.70;71.80;;;;;;4972592;28;20027;-71